Time;durP1;ratioP1;P1;durP2;ratioP2;P2;SDS_P1;SDS_P2;PMS_P1;PMS_P2;Temp;Humidity;BMP_temperature;BMP_pressure;BME280_temperature;BME280_humidity;BME280_pressure;Samples;Min_cycle;Max_cycle;Signal;HPM_P1;HPM_P2
2022/02/28 00:00:45;;;;;;;4.20;3.65;;;;;;;;;;5052577;28;20278;-45
2022/02/28 00:03:11;;;;;;;4.97;4.47;;;;;;;;;;5052459;28;20163;-45
2022/02/28 00:05:37;;;;;;;7.03;4.78;;;;;;;;;;5052606;28;20167;-46
2022/02/28 00:08:04;;;;;;;7.82;4.70;;;;;;;;;;5052445;28;20643;-45
2022/02/28 00:10:30;;;;;;;5.38;4.30;;;;;;;;;;5052332;28;20639;-45
2022/02/28 00:12:56;;;;;;;7.53;4.30;;;;;;;;;;5052675;28;20171;-45
2022/02/28 00:15:22;;;;;;;6.20;4.35;;;;;;;;;;5052973;28;20203;-46
2022/02/28 00:17:48;;;;;;;8.43;4.65;;;;;;;;;;5052192;28;20187;-45
2022/02/28 00:20:15;;;;;;;6.17;4.30;;;;;;;;;;5052113;28;20556;-46
2022/02/28 00:22:41;;;;;;;5.43;4.43;;;;;;;;;;5052236;28;20401;-46
2022/02/28 00:28:11;;;;;;;11.10;4.80;;;;;;;;;;5052666;28;20241;-46
2022/02/28 00:30:38;;;;;;;6.60;4.82;;;;;;;;;;5052007;28;20245;-46
2022/02/28 00:33:04;;;;;;;5.43;4.70;;;;;;;;;;5052573;28;20171;-46
2022/02/28 00:35:30;;;;;;;6.35;4.93;;;;;;;;;;5052195;28;20174;-45
2022/02/28 00:37:56;;;;;;;6.05;5.15;;;;;;;;;;5051918;28;20217;-46
2022/02/28 00:40:23;;;;;;;7.85;4.75;;;;;;;;;;5051710;28;20256;-46
2022/02/28 00:42:49;;;;;;;9.15;4.85;;;;;;;;;;5052041;28;20193;-46
2022/02/28 00:45:15;;;;;;;5.63;4.32;;;;;;;;;;5051932;28;20178;-46
2022/02/28 00:47:40;;;;;;;7.80;5.30;;;;;;;;;;5051970;28;20179;-46
2022/02/28 00:50:08;;;;;;;6.30;4.97;;;;;;;;;;5051680;28;20940;-46
2022/02/28 00:52:34;;;;;;;6.00;4.35;;;;;;;;;;5051593;28;20394;-46
2022/02/28 00:54:59;;;;;;;6.90;4.40;;;;;;;;;;5052129;28;20676;-47
2022/02/28 00:57:25;;;;;;;5.90;4.87;;;;;;;;;;5051821;28;20983;-46
2022/02/28 00:59:51;;;;;;;8.40;4.97;;;;;;;;;;5051631;28;20795;-46
2022/02/28 01:02:18;;;;;;;8.17;4.43;;;;;;;;;;5051749;28;20408;-46
2022/02/28 01:04:44;;;;;;;5.68;4.28;;;;;;;;;;5051224;28;20413;-46
2022/02/28 01:07:10;;;;;;;5.20;4.68;;;;;;;;;;5051325;28;20222;-46
2022/02/28 01:09:36;;;;;;;6.10;4.78;;;;;;;;;;5050585;28;20206;-46
2022/02/28 01:12:04;;;;;;;5.40;4.90;;;;;;;;;;5050936;28;20209;-47
2022/02/28 01:14:30;;;;;;;7.10;4.60;;;;;;;;;;5051372;28;20823;-46
2022/02/28 01:16:56;;;;;;;9.48;4.80;;;;;;;;;;5051331;28;20214;-46
2022/02/28 01:19:22;;;;;;;5.72;4.10;;;;;;;;;;5050750;28;20199;-46
2022/02/28 01:21:48;;;;;;;6.70;4.50;;;;;;;;;;5051143;28;20516;-46
2022/02/28 01:24:14;;;;;;;6.07;4.23;;;;;;;;;;5051212;28;20404;-46
2022/02/28 01:26:41;;;;;;;4.70;4.30;;;;;;;;;;5051822;28;20444;-46
2022/02/28 01:29:07;;;;;;;5.90;4.57;;;;;;;;;;5050961;28;20558;-46
2022/02/28 01:31:33;;;;;;;6.63;4.97;;;;;;;;;;5049897;28;20175;-46
2022/02/28 01:33:59;;;;;;;4.85;3.97;;;;;;;;;;5051033;28;20427;-46
2022/02/28 01:36:25;;;;;;;6.30;4.27;;;;;;;;;;5050917;28;20198;-46
2022/02/28 01:38:51;;;;;;;6.97;5.38;;;;;;;;;;5050833;28;20452;-46
2022/02/28 01:41:17;;;;;;;6.50;4.70;;;;;;;;;;5050914;28;20174;-47
2022/02/28 01:43:43;;;;;;;5.68;4.93;;;;;;;;;;5049660;28;20178;-47
2022/02/28 01:46:09;;;;;;;6.70;4.50;;;;;;;;;;5051176;28;20166;-48
2022/02/28 01:48:35;;;;;;;6.57;4.20;;;;;;;;;;5050858;28;20440;-46
2022/02/28 01:51:01;;;;;;;6.70;4.80;;;;;;;;;;5050785;28;20937;-46
2022/02/28 01:53:27;;;;;;;6.60;4.43;;;;;;;;;;5050705;28;20393;-46
2022/02/28 01:55:53;;;;;;;6.70;4.70;;;;;;;;;;5051040;28;20182;-46
2022/02/28 01:58:19;;;;;;;5.22;4.03;;;;;;;;;;5050777;28;20833;-46
2022/02/28 02:00:45;;;;;;;10.05;5.35;;;;;;;;;;5050593;28;20221;-46
2022/02/28 02:03:11;;;;;;;6.03;5.28;;;;;;;;;;5050825;28;20642;-46
2022/02/28 02:05:37;;;;;;;5.85;5.05;;;;;;;;;;5050644;28;20178;-46
2022/02/28 02:08:04;;;;;;;6.17;5.27;;;;;;;;;;5050529;28;20190;-46
2022/02/28 02:10:30;;;;;;;5.43;4.55;;;;;;;;;;5050432;28;20406;-46
2022/02/28 02:12:57;;;;;;;6.17;4.80;;;;;;;;;;5050707;28;20192;-46
2022/02/28 02:15:23;;;;;;;6.57;4.88;;;;;;;;;;5050603;28;20455;-46
2022/02/28 02:17:49;;;;;;;5.87;5.23;;;;;;;;;;5050610;28;20727;-47
2022/02/28 02:20:17;;;;;;;6.38;5.05;;;;;;;;;;5050481;28;20456;-46
2022/02/28 02:22:56;;;;;;;6.40;5.00;;;;;;;;;;5050543;28;20174;-46
2022/02/28 02:25:22;;;;;;;12.32;5.07;;;;;;;;;;5050745;28;20270;-46
2022/02/28 02:27:48;;;;;;;7.88;5.07;;;;;;;;;;5050534;28;20272;-46
2022/02/28 02:30:14;;;;;;;6.03;5.10;;;;;;;;;;5050524;28;20199;-46
2022/02/28 02:32:41;;;;;;;5.15;4.60;;;;;;;;;;5053797;28;20401;-48
2022/02/28 02:35:07;;;;;;;6.63;4.90;;;;;;;;;;5054617;28;20182;-45
2022/02/28 02:37:33;;;;;;;10.68;5.18;;;;;;;;;;5054553;28;20264;-46
2022/02/28 02:39:59;;;;;;;7.60;4.33;;;;;;;;;;5054214;28;20199;-46
2022/02/28 02:42:25;;;;;;;5.40;4.90;;;;;;;;;;5054325;28;20397;-47
2022/02/28 02:44:51;;;;;;;6.60;4.50;;;;;;;;;;5054294;28;20397;-47
2022/02/28 02:47:17;;;;;;;6.77;6.03;;;;;;;;;;5054151;28;20471;-46
2022/02/28 02:49:43;;;;;;;7.30;5.03;;;;;;;;;;5053803;28;20432;-46
2022/02/28 02:52:09;;;;;;;6.90;5.07;;;;;;;;;;5053936;28;20534;-46
2022/02/28 02:54:35;;;;;;;7.10;5.10;;;;;;;;;;5054101;28;20410;-46
2022/02/28 02:57:01;;;;;;;7.22;5.68;;;;;;;;;;5053919;28;20475;-46
2022/02/28 02:59:27;;;;;;;6.67;5.00;;;;;;;;;;5053152;28;20202;-46
2022/02/28 03:01:53;;;;;;;8.63;4.90;;;;;;;;;;5054225;28;20432;-46
2022/02/28 03:04:19;;;;;;;6.60;5.00;;;;;;;;;;5053855;28;20397;-46
2022/02/28 03:06:45;;;;;;;6.10;5.07;;;;;;;;;;5053925;28;20429;-46
2022/02/28 03:09:12;;;;;;;8.10;5.50;;;;;;;;;;5052852;28;20417;-46
2022/02/28 03:11:38;;;;;;;6.43;5.55;;;;;;;;;;5053248;28;20416;-47
2022/02/28 03:14:03;;;;;;;6.93;5.07;;;;;;;;;;5053676;28;20171;-46
2022/02/28 03:16:29;;;;;;;6.27;5.63;;;;;;;;;;5053464;28;20427;-46
2022/02/28 03:18:55;;;;;;;5.23;4.70;;;;;;;;;;5053305;28;20511;-47
2022/02/28 03:21:21;;;;;;;9.00;5.15;;;;;;;;;;5053509;28;20886;-46
2022/02/28 03:23:47;;;;;;;6.77;5.30;;;;;;;;;;5053410;28;20179;-46
2022/02/28 03:26:13;;;;;;;9.50;5.57;;;;;;;;;;5053405;28;20492;-47
2022/02/28 03:28:39;;;;;;;8.60;5.03;;;;;;;;;;5053194;28;20888;-46
2022/02/28 03:31:06;;;;;;;6.68;4.95;;;;;;;;;;5053226;28;20163;-46
2022/02/28 03:33:32;;;;;;;8.15;5.47;;;;;;;;;;5053410;28;20166;-46
2022/02/28 03:35:58;;;;;;;7.22;5.18;;;;;;;;;;5053322;28;20167;-46
2022/02/28 03:38:24;;;;;;;7.60;5.32;;;;;;;;;;5053161;28;20210;-47
2022/02/28 03:40:50;;;;;;;5.77;4.87;;;;;;;;;;5052842;28;20234;-46
2022/02/28 03:43:16;;;;;;;7.07;4.90;;;;;;;;;;5052984;28;20823;-46
2022/02/28 03:45:42;;;;;;;10.10;4.78;;;;;;;;;;5053001;28;20218;-46
2022/02/28 03:48:08;;;;;;;6.15;5.25;;;;;;;;;;5052783;28;20187;-46
2022/02/28 03:50:34;;;;;;;6.47;5.25;;;;;;;;;;5053156;28;20473;-46
2022/02/28 03:53:00;;;;;;;6.23;4.90;;;;;;;;;;5053386;28;20622;-46
2022/02/28 03:55:26;;;;;;;6.57;5.20;;;;;;;;;;5052925;28;20454;-46
2022/02/28 03:57:52;;;;;;;6.68;5.05;;;;;;;;;;5052922;28;20193;-46
2022/02/28 04:00:18;;;;;;;9.57;5.13;;;;;;;;;;5052902;28;20191;-46
2022/02/28 04:02:44;;;;;;;8.13;5.13;;;;;;;;;;5052921;28;20527;-46
2022/02/28 04:05:12;;;;;;;9.30;5.40;;;;;;;;;;5053086;28;20405;-46
2022/02/28 04:07:38;;;;;;;6.55;4.70;;;;;;;;;;5052818;28;20187;-46
2022/02/28 04:10:05;;;;;;;6.40;5.13;;;;;;;;;;5052508;28;20186;-46
2022/02/28 04:12:31;;;;;;;6.03;5.20;;;;;;;;;;5052638;28;20668;-46
2022/02/28 04:14:57;;;;;;;5.95;4.45;;;;;;;;;;5052639;28;20596;-47
2022/02/28 04:17:23;;;;;;;5.67;4.60;;;;;;;;;;5052478;28;20191;-46
2022/02/28 04:19:49;;;;;;;5.80;5.20;;;;;;;;;;5052198;28;20496;-46
2022/02/28 04:22:15;;;;;;;7.30;5.28;;;;;;;;;;5052406;28;20409;-46
2022/02/28 04:24:41;;;;;;;10.25;5.97;;;;;;;;;;5052225;28;20167;-46
2022/02/28 04:27:07;;;;;;;6.72;5.25;;;;;;;;;;5052629;28;20191;-46
2022/02/28 04:29:34;;;;;;;5.32;4.80;;;;;;;;;;5052017;28;20218;-46
2022/02/28 04:32:00;;;;;;;5.15;4.65;;;;;;;;;;5052127;28;20166;-46
2022/02/28 04:34:27;;;;;;;6.25;5.03;;;;;;;;;;5052195;28;20356;-46
2022/02/28 04:36:53;;;;;;;6.10;4.85;;;;;;;;;;5052156;28;20617;-46
2022/02/28 04:39:19;;;;;;;7.87;5.70;;;;;;;;;;5051756;28;20218;-46
2022/02/28 04:41:45;;;;;;;9.80;5.30;;;;;;;;;;5051864;28;20398;-46
2022/02/28 04:44:11;;;;;;;6.57;5.32;;;;;;;;;;5051947;28;20163;-46
2022/02/28 04:46:37;;;;;;;7.27;5.60;;;;;;;;;;5052034;28;20611;-46
2022/02/28 04:49:03;;;;;;;11.93;6.30;;;;;;;;;;5051546;28;20421;-46
2022/02/28 04:51:29;;;;;;;6.47;5.63;;;;;;;;;;5051929;28;20843;-47
2022/02/28 04:53:55;;;;;;;6.37;5.20;;;;;;;;;;5050898;28;20167;-45
2022/02/28 04:56:21;;;;;;;6.43;4.70;;;;;;;;;;5051648;28;20397;-46
2022/02/28 04:58:47;;;;;;;5.60;4.80;;;;;;;;;;5051561;28;20175;-46
2022/02/28 05:01:13;;;;;;;8.73;5.00;;;;;;;;;;5051434;28;20453;-46
2022/02/28 05:03:39;;;;;;;7.60;5.40;;;;;;;;;;5051584;28;20185;-46
2022/02/28 05:06:05;;;;;;;8.38;4.55;;;;;;;;;;5051627;28;20170;-47
2022/02/28 05:11:35;;;;;;;8.40;5.00;;;;;;;;;;5051573;28;20365;-46
2022/02/28 05:14:01;;;;;;;8.90;6.00;;;;;;;;;;5051693;28;20175;-47
2022/02/28 05:16:27;;;;;;;9.10;5.50;;;;;;;;;;5051449;28;20409;-46
2022/02/28 05:18:52;;;;;;;5.63;4.27;;;;;;;;;;5051018;28;20457;-46
2022/02/28 05:21:18;;;;;;;7.03;5.27;;;;;;;;;;5051800;28;20397;-46
2022/02/28 05:23:44;;;;;;;5.90;5.03;;;;;;;;;;5051583;28;20394;-46
2022/02/28 05:26:10;;;;;;;8.20;5.07;;;;;;;;;;5051086;28;20503;-46
2022/02/28 05:28:36;;;;;;;9.23;6.27;;;;;;;;;;5051302;28;20422;-46
2022/02/28 05:31:03;;;;;;;7.97;5.25;;;;;;;;;;5051059;28;20394;-47
2022/02/28 05:33:29;;;;;;;7.50;5.15;;;;;;;;;;5051159;28;20163;-46
2022/02/28 05:35:55;;;;;;;7.17;5.57;;;;;;;;;;5051229;28;20500;-47
2022/02/28 05:38:21;;;;;;;10.17;5.23;;;;;;;;;;5051194;28;20436;-46
2022/02/28 05:40:50;;;;;;;11.80;6.20;;;;;;;;;;5051016;28;20452;-46
2022/02/28 05:43:16;;;;;;;8.43;5.78;;;;;;;;;;5051186;28;20487;-46
2022/02/28 05:45:42;;;;;;;5.60;5.03;;;;;;;;;;5051122;28;20653;-46
2022/02/28 05:48:08;;;;;;;9.40;5.17;;;;;;;;;;5051102;28;20985;-47
2022/02/28 05:50:34;;;;;;;6.40;5.20;;;;;;;;;;5050827;28;20394;-46
2022/02/28 05:53:00;;;;;;;6.38;5.38;;;;;;;;;;5050819;28;20252;-46
2022/02/28 05:55:27;;;;;;;8.80;5.50;;;;;;;;;;5050870;28;20167;-46
2022/02/28 05:57:53;;;;;;;7.65;5.80;;;;;;;;;;5050772;28;20240;-45
2022/02/28 06:00:20;;;;;;;8.97;5.23;;;;;;;;;;5050571;28;20222;-46
2022/02/28 06:02:47;;;;;;;8.65;6.32;;;;;;;;;;5050804;28;20401;-46
2022/02/28 06:05:13;;;;;;;8.27;5.15;;;;;;;;;;5051735;28;20169;-47
2022/02/28 06:07:39;;;;;;;9.98;6.28;;;;;;;;;;5054784;28;20560;-46
2022/02/28 06:10:05;;;;;;;10.63;7.00;;;;;;;;;;5054973;28;20163;-46
2022/02/28 06:12:31;;;;;;;10.07;6.88;;;;;;;;;;5054748;28;20492;-47
2022/02/28 06:14:57;;;;;;;14.37;6.73;;;;;;;;;;5054735;28;20249;-46
2022/02/28 06:17:23;;;;;;;9.03;6.57;;;;;;;;;;5054784;28;20795;-47
2022/02/28 06:19:50;;;;;;;9.07;6.80;;;;;;;;;;5054369;28;20894;-46
2022/02/28 06:22:17;;;;;;;11.25;6.90;;;;;;;;;;5054397;28;20398;-46
2022/02/28 06:24:43;;;;;;;9.88;5.90;;;;;;;;;;5054555;28;20638;-47
2022/02/28 06:27:09;;;;;;;8.83;6.17;;;;;;;;;;5054454;28;20189;-46
2022/02/28 06:29:35;;;;;;;10.73;5.75;;;;;;;;;;5054251;28;20486;-45
2022/02/28 06:32:01;;;;;;;8.48;5.78;;;;;;;;;;5054530;28;20175;-46
2022/02/28 06:34:31;;;;;;;7.60;5.60;;;;;;;;;;5054383;28;20171;-46
2022/02/28 06:36:57;;;;;;;9.95;6.40;;;;;;;;;;5054228;28;20429;-45
2022/02/28 06:39:23;;;;;;;10.20;5.50;;;;;;;;;;5054089;28;20556;-47
2022/02/28 06:41:49;;;;;;;10.10;6.07;;;;;;;;;;5054412;28;20484;-46
2022/02/28 06:44:15;;;;;;;9.23;5.90;;;;;;;;;;5054222;28;20401;-46
2022/02/28 06:46:41;;;;;;;11.32;6.60;;;;;;;;;;5054085;28;20555;-47
2022/02/28 06:49:07;;;;;;;7.30;5.53;;;;;;;;;;5053815;28;20293;-46
2022/02/28 06:51:33;;;;;;;10.60;6.50;;;;;;;;;;5054123;28;20454;-46
2022/02/28 06:53:59;;;;;;;9.17;6.47;;;;;;;;;;5054211;28;20398;-46
2022/02/28 06:56:25;;;;;;;12.73;6.22;;;;;;;;;;5053875;28;20408;-46
2022/02/28 06:58:51;;;;;;;5.73;5.00;;;;;;;;;;5053789;28;20174;-45
2022/02/28 07:01:17;;;;;;;7.40;5.30;;;;;;;;;;5054026;28;20447;-46
2022/02/28 07:03:43;;;;;;;7.43;5.70;;;;;;;;;;5054418;28;20562;-46
2022/02/28 07:06:10;;;;;;;9.00;5.85;;;;;;;;;;5054642;28;20405;-46
2022/02/28 07:08:36;;;;;;;9.93;5.68;;;;;;;;;;5054055;28;20183;-46
2022/02/28 07:11:02;;;;;;;6.63;5.80;;;;;;;;;;5054088;28;20683;-46
2022/02/28 07:13:28;;;;;;;7.82;6.40;;;;;;;;;;5052330;28;20500;-46
2022/02/28 07:15:54;;;;;;;10.15;6.85;;;;;;;;;;5053749;28;20242;-46
2022/02/28 07:18:20;;;;;;;12.20;7.90;;;;;;;;;;5052823;28;20241;-46
2022/02/28 07:20:46;;;;;;;12.53;7.00;;;;;;;;;;5053382;28;20206;-46
2022/02/28 07:23:12;;;;;;;16.57;7.73;;;;;;;;;;5053680;28;20394;-46
2022/02/28 07:25:38;;;;;;;9.10;6.73;;;;;;;;;;5053338;28;20482;-46
2022/02/28 07:28:04;;;;;;;11.07;6.40;;;;;;;;;;5053306;28;20432;-46
2022/02/28 07:30:30;;;;;;;14.10;7.00;;;;;;;;;;5053174;28;20409;-46
2022/02/28 07:32:56;;;;;;;11.67;6.40;;;;;;;;;;5053164;28;20400;-46
2022/02/28 07:35:22;;;;;;;13.40;6.67;;;;;;;;;;5053217;28;20488;-46
2022/02/28 07:37:48;;;;;;;12.63;6.70;;;;;;;;;;5053165;28;20987;-46
2022/02/28 07:40:14;;;;;;;8.20;6.80;;;;;;;;;;5052879;28;20453;-46
2022/02/28 07:42:40;;;;;;;9.20;7.20;;;;;;;;;;5041836;28;20455;-46
2022/02/28 07:45:07;;;;;;;10.50;7.40;;;;;;;;;;5049612;28;20405;-46
2022/02/28 07:47:33;;;;;;;10.17;6.90;;;;;;;;;;5053121;28;20498;-46
2022/02/28 07:49:59;;;;;;;13.40;6.60;;;;;;;;;;5052730;28;21008;-46
2022/02/28 07:52:25;;;;;;;10.70;6.93;;;;;;;;;;5053088;28;20567;-46
2022/02/28 07:54:51;;;;;;;10.20;7.20;;;;;;;;;;5052938;28;20496;-46
2022/02/28 07:57:17;;;;;;;9.50;6.90;;;;;;;;;;5052644;28;20426;-47
2022/02/28 07:59:43;;;;;;;11.53;7.10;;;;;;;;;;5052589;28;20452;-46
2022/02/28 08:02:09;;;;;;;7.63;6.53;;;;;;;;;;5053126;28;20888;-46
2022/02/28 08:04:35;;;;;;;9.13;6.50;;;;;;;;;;5052735;28;20908;-46
2022/02/28 08:07:01;;;;;;;7.43;6.63;;;;;;;;;;5052587;28;20411;-46
2022/02/28 08:09:27;;;;;;;8.50;6.93;;;;;;;;;;5052526;28;20453;-46
2022/02/28 08:11:54;;;;;;;9.27;7.00;;;;;;;;;;5052799;28;20830;-46
2022/02/28 08:14:20;;;;;;;11.97;7.17;;;;;;;;;;5052803;28;20404;-46
2022/02/28 08:16:46;;;;;;;14.70;7.10;;;;;;;;;;5052355;28;20417;-47
2022/02/28 08:19:12;;;;;;;13.50;7.13;;;;;;;;;;5052049;28;20794;-46
2022/02/28 08:21:38;;;;;;;9.60;7.33;;;;;;;;;;5052559;28;20406;-46
2022/02/28 08:24:04;;;;;;;12.70;7.03;;;;;;;;;;5051979;28;20409;-46
2022/02/28 08:26:30;;;;;;;9.20;6.70;;;;;;;;;;5051387;28;20444;-46
2022/02/28 08:28:56;;;;;;;8.80;6.63;;;;;;;;;;5049625;28;20433;-46
2022/02/28 08:31:22;;;;;;;10.07;7.00;;;;;;;;;;5052260;28;20406;-46
2022/02/28 08:33:48;;;;;;;9.60;6.80;;;;;;;;;;5052125;28;20794;-47
2022/02/28 08:36:14;;;;;;;12.40;6.57;;;;;;;;;;5052152;28;20406;-46
2022/02/28 08:38:40;;;;;;;12.43;6.80;;;;;;;;;;5051684;28;20422;-47
2022/02/28 08:41:06;;;;;;;8.43;6.73;;;;;;;;;;5051770;28;20909;-46
2022/02/28 08:43:32;;;;;;;7.53;5.90;;;;;;;;;;5051888;28;20458;-46
2022/02/28 08:45:58;;;;;;;9.13;6.70;;;;;;;;;;5051909;28;20414;-47
2022/02/28 08:48:24;;;;;;;7.83;6.40;;;;;;;;;;5051697;28;20511;-46
2022/02/28 08:50:50;;;;;;;8.03;5.77;;;;;;;;;;5052064;28;20491;-47
2022/02/28 08:53:16;;;;;;;9.00;7.10;;;;;;;;;;5051598;28;20434;-47
2022/02/28 08:55:42;;;;;;;7.50;6.50;;;;;;;;;;5051750;28;20822;-46
2022/02/28 08:58:08;;;;;;;8.27;6.20;;;;;;;;;;5051617;28;20434;-46
2022/02/28 09:00:34;;;;;;;10.63;6.63;;;;;;;;;;5051371;28;20467;-46
2022/02/28 09:03:01;;;;;;;9.97;6.53;;;;;;;;;;5051561;28;20394;-46
2022/02/28 09:05:27;;;;;;;8.20;6.13;;;;;;;;;;5051571;28;20422;-47
2022/02/28 09:07:53;;;;;;;9.83;6.80;;;;;;;;;;5051310;28;20461;-47
2022/02/28 09:10:19;;;;;;;11.40;7.23;;;;;;;;;;5051489;28;20454;-47
2022/02/28 09:12:45;;;;;;;9.60;6.67;;;;;;;;;;5051408;28;20420;-47
2022/02/28 09:15:11;;;;;;;8.90;6.10;;;;;;;;;;5051377;28;20504;-47
2022/02/28 09:17:37;;;;;;;10.67;6.77;;;;;;;;;;5051328;28;20626;-47
2022/02/28 09:20:03;;;;;;;8.20;6.60;;;;;;;;;;5051121;28;20459;-47
2022/02/28 09:22:30;;;;;;;7.17;6.33;;;;;;;;;;5050732;28;20404;-47
2022/02/28 09:24:55;;;;;;;8.87;6.47;;;;;;;;;;5051063;28;20403;-47
2022/02/28 09:27:21;;;;;;;7.23;6.53;;;;;;;;;;5051129;28;20426;-47
2022/02/28 09:29:47;;;;;;;10.83;6.50;;;;;;;;;;5050943;28;20381;-47
2022/02/28 09:32:13;;;;;;;8.20;6.60;;;;;;;;;;5036458;28;20419;-47
2022/02/28 09:34:40;;;;;;;8.40;6.93;;;;;;;;;;5051162;28;20459;-47
2022/02/28 09:37:06;;;;;;;9.30;6.30;;;;;;;;;;5050979;28;20487;-47
2022/02/28 09:39:32;;;;;;;7.60;6.77;;;;;;;;;;5050671;28;21050;-47
2022/02/28 09:42:00;;;;;;;10.10;8.20;;;;;;;;;;5051026;28;20395;-47
2022/02/28 09:44:26;;;;;;;7.57;6.67;;;;;;;;;;5051326;28;20378;-47
2022/02/28 09:46:52;;;;;;;10.80;6.80;;;;;;;;;;5050988;28;20424;-47
2022/02/28 09:49:18;;;;;;;9.57;6.83;;;;;;;;;;5050660;28;20512;-47
2022/02/28 09:51:45;;;;;;;8.20;6.70;;;;;;;;;;5050761;28;20789;-47
2022/02/28 09:54:11;;;;;;;9.97;6.80;;;;;;;;;;5050879;28;20496;-47
2022/02/28 09:56:38;;;;;;;6.20;5.60;;;;;;;;;;5050811;28;20459;-47
2022/02/28 09:59:04;;;;;;;8.77;6.50;;;;;;;;;;5050383;28;20459;-47
2022/02/28 10:01:30;;;;;;;7.63;6.60;;;;;;;;;;5050703;28;20409;-47
2022/02/28 10:03:56;;;;;;;11.13;7.17;;;;;;;;;;5050631;28;20382;-47
2022/02/28 10:06:24;;;;;;;8.77;7.10;;;;;;;;;;5050641;28;20405;-47
2022/02/28 10:08:51;;;;;;;7.70;6.07;;;;;;;;;;5050508;28;20496;-46
2022/02/28 10:11:24;;;;;;;8.23;6.27;;;;;;;;;;5050582;28;21092;-47
2022/02/28 10:13:51;;;;;;;7.20;6.50;;;;;;;;;;5049985;28;20400;-47
2022/02/28 10:16:52;;;;;;;7.37;6.50;;;;;;;;;;5050528;28;20427;-48
2022/02/28 10:19:23;;;;;;;9.97;6.27;;;;;;;;;;5038237;28;20879;-47
2022/02/28 10:21:50;;;;;;;6.17;5.57;;;;;;;;;;5048468;28;20473;-47
2022/02/28 10:24:20;;;;;;;6.43;5.80;;;;;;;;;;5050214;28;20443;-47
2022/02/28 10:26:48;;;;;;;14.10;7.27;;;;;;;;;;5050400;28;20432;-49
2022/02/28 10:29:15;;;;;;;8.00;5.93;;;;;;;;;;5050303;28;20487;-49
2022/02/28 10:31:42;;;;;;;9.10;6.17;;;;;;;;;;5050466;28;20416;-47
2022/02/28 10:34:21;;;;;;;10.00;6.40;;;;;;;;;;5050515;28;20403;-47
2022/02/28 10:36:59;;;;;;;8.20;6.00;;;;;;;;;;5050157;28;20960;-48
2022/02/28 10:39:26;;;;;;;5.73;5.27;;;;;;;;;;5050187;28;20552;-48
2022/02/28 10:41:55;;;;;;;8.30;5.90;;;;;;;;;;5050394;28;20413;-48
2022/02/28 10:44:21;;;;;;;6.03;5.53;;;;;;;;;;5050385;28;20979;-48
2022/02/28 10:46:48;;;;;;;6.83;5.83;;;;;;;;;;5050296;28;20439;-48
2022/02/28 10:49:20;;;;;;;6.00;5.50;;;;;;;;;;5049611;28;20499;-48
2022/02/28 10:51:53;;;;;;;7.43;6.23;;;;;;;;;;5050428;28;20512;-51
2022/02/28 10:54:25;;;;;;;6.73;6.10;;;;;;;;;;5054013;28;20774;-48
2022/02/28 10:56:53;;;;;;;6.43;5.83;;;;;;;;;;5054233;28;20448;-48
2022/02/28 10:59:20;;;;;;;7.90;6.43;;;;;;;;;;5053863;28;20456;-48
2022/02/28 11:01:46;;;;;;;8.83;6.47;;;;;;;;;;5053882;28;20818;-48
2022/02/28 11:04:13;;;;;;;5.67;5.17;;;;;;;;;;5054078;28;20404;-48
2022/02/28 11:06:39;;;;;;;6.83;6.10;;;;;;;;;;5054046;28;20396;-47
2022/02/28 11:09:05;;;;;;;7.00;5.97;;;;;;;;;;5053765;28;20409;-48
2022/02/28 11:11:32;;;;;;;6.80;6.10;;;;;;;;;;5054033;28;20405;-47
2022/02/28 11:13:58;;;;;;;5.57;5.07;;;;;;;;;;5053920;28;20480;-47
2022/02/28 11:16:26;;;;;;;6.73;6.13;;;;;;;;;;5053474;28;20422;-48
2022/02/28 11:18:52;;;;;;;7.00;6.20;;;;;;;;;;5053344;28;20484;-48
2022/02/28 11:21:18;;;;;;;7.10;6.20;;;;;;;;;;5053462;28;20398;-47
2022/02/28 11:23:45;;;;;;;7.50;6.80;;;;;;;;;;5053464;28;20401;-47
2022/02/28 11:26:12;;;;;;;6.33;5.73;;;;;;;;;;5053426;28;20416;-48
2022/02/28 11:28:38;;;;;;;7.23;6.50;;;;;;;;;;5052049;28;20421;-48
2022/02/28 11:31:05;;;;;;;12.20;6.00;;;;;;;;;;5051515;28;20401;-48
2022/02/28 11:33:31;;;;;;;6.43;5.83;;;;;;;;;;5052587;28;20397;-48
2022/02/28 11:35:58;;;;;;;6.80;6.10;;;;;;;;;;5053288;28;20429;-48
2022/02/28 11:38:27;;;;;;;6.10;5.10;;;;;;;;;;5053145;28;20500;-47
2022/02/28 11:40:54;;;;;;;6.93;5.83;;;;;;;;;;5052850;28;20503;-48
2022/02/28 11:43:22;;;;;;;5.43;4.90;;;;;;;;;;5052873;28;20401;-48
2022/02/28 11:45:52;;;;;;;6.57;4.93;;;;;;;;;;5053112;28;20426;-48
2022/02/28 11:48:36;;;;;;;6.47;5.80;;;;;;;;;;5052793;28;20444;-48
2022/02/28 11:51:04;;;;;;;5.97;5.40;;;;;;;;;;5052839;28;20463;-48
2022/02/28 11:53:39;;;;;;;6.60;5.77;;;;;;;;;;5052855;28;20398;-48
2022/02/28 11:56:17;;;;;;;6.43;5.80;;;;;;;;;;5052980;28;20397;-48
2022/02/28 11:58:51;;;;;;;7.03;6.07;;;;;;;;;;5052831;28;20431;-48
2022/02/28 12:01:18;;;;;;;5.83;4.90;;;;;;;;;;5052602;28;20420;-48
2022/02/28 12:03:51;;;;;;;6.17;5.10;;;;;;;;;;5052277;28;20400;-48
2022/02/28 12:06:40;;;;;;;7.57;6.50;;;;;;;;;;5052716;28;20401;-48
2022/02/28 12:09:06;;;;;;;6.43;5.83;;;;;;;;;;5052527;28;20435;-48
2022/02/28 12:11:32;;;;;;;6.87;5.50;;;;;;;;;;5052720;28;20484;-48
2022/02/28 12:14:02;;;;;;;7.57;6.37;;;;;;;;;;5052621;28;20398;-48
2022/02/28 12:19:29;;;;;;;8.50;6.30;;;;;;;;;;5052424;28;20507;-47
2022/02/28 12:21:59;;;;;;;5.80;5.20;;;;;;;;;;5052562;28;20430;-48
2022/02/28 12:24:44;;;;;;;7.30;5.33;;;;;;;;;;5052595;28;20409;-48
2022/02/28 12:27:11;;;;;;;7.17;5.70;;;;;;;;;;5052369;28;20436;-48
2022/02/28 12:29:37;;;;;;;6.17;5.10;;;;;;;;;;5052118;28;20411;-48
2022/02/28 12:32:03;;;;;;;7.73;7.00;;;;;;;;;;5052254;28;20537;-48
2022/02/28 12:34:35;;;;;;;8.13;5.47;;;;;;;;;;5052182;28;20414;-47
2022/02/28 12:37:02;;;;;;;7.40;6.43;;;;;;;;;;5051971;28;20421;-47
2022/02/28 12:39:28;;;;;;;9.00;6.63;;;;;;;;;;5051909;28;20489;-48
2022/02/28 12:41:56;;;;;;;7.80;6.20;;;;;;;;;;5050770;28;20440;-48
2022/02/28 12:44:22;;;;;;;7.47;5.67;;;;;;;;;;5052024;28;20402;-48
2022/02/28 12:46:53;;;;;;;7.30;6.60;;;;;;;;;;5051890;28;20422;-49
2022/02/28 12:49:19;;;;;;;7.03;5.60;;;;;;;;;;5051671;28;20479;-48
2022/02/28 12:51:47;;;;;;;6.40;5.80;;;;;;;;;;5051686;28;20881;-48
2022/02/28 12:54:20;;;;;;;7.70;5.90;;;;;;;;;;5051877;28;20402;-48
2022/02/28 12:56:46;;;;;;;7.17;6.47;;;;;;;;;;5051771;28;20432;-48
2022/02/28 12:59:13;;;;;;;6.90;6.20;;;;;;;;;;5051425;28;20449;-48
2022/02/28 13:01:39;;;;;;;6.80;6.10;;;;;;;;;;5051445;28;21007;-48
2022/02/28 13:04:06;;;;;;;6.97;6.20;;;;;;;;;;5051252;28;20752;-49
2022/02/28 13:06:34;;;;;;;7.53;5.83;;;;;;;;;;5051283;28;20491;-48
2022/02/28 13:09:05;;;;;;;6.20;5.60;;;;;;;;;;5050413;28;20385;-47
2022/02/28 13:11:32;;;;;;;7.40;5.33;;;;;;;;;;5049874;28;20405;-47
2022/02/28 13:13:59;;;;;;;6.67;5.27;;;;;;;;;;5051050;28;20402;-48
2022/02/28 13:16:26;;;;;;;5.77;4.90;;;;;;;;;;5050503;28;20459;-47
2022/02/28 13:19:06;;;;;;;6.50;5.47;;;;;;;;;;5051065;28;20463;-47
2022/02/28 13:21:36;;;;;;;8.43;6.30;;;;;;;;;;5051192;28;20405;-48
2022/02/28 13:24:03;;;;;;;8.13;5.47;;;;;;;;;;5051327;28;20413;-48
2022/02/28 13:26:29;;;;;;;7.20;5.70;;;;;;;;;;5051098;28;20400;-48
2022/02/28 13:28:55;;;;;;;6.37;5.77;;;;;;;;;;5050655;28;20467;-49
2022/02/28 13:31:22;;;;;;;7.00;4.80;;;;;;;;;;5050955;28;20409;-48
2022/02/28 13:33:48;;;;;;;5.83;5.23;;;;;;;;;;5050769;28;20778;-48
2022/02/28 13:36:14;;;;;;;6.57;5.87;;;;;;;;;;5050056;28;20394;-48
2022/02/28 13:38:40;;;;;;;5.67;5.07;;;;;;;;;;5051067;28;20436;-48
2022/02/28 13:41:10;;;;;;;6.40;4.93;;;;;;;;;;5050960;28;20458;-48
2022/02/28 13:43:36;;;;;;;6.90;6.17;;;;;;;;;;5051105;28;20430;-48
2022/02/28 13:46:02;;;;;;;9.03;5.47;;;;;;;;;;5051175;28;20783;-48
2022/02/28 13:48:29;;;;;;;6.60;5.63;;;;;;;;;;5050866;28;20938;-47
2022/02/28 13:50:56;;;;;;;6.23;5.70;;;;;;;;;;5050825;28;20414;-49
2022/02/28 13:53:23;;;;;;;8.10;5.70;;;;;;;;;;5050933;28;20403;-49
2022/02/28 13:55:50;;;;;;;8.33;5.93;;;;;;;;;;5050947;28;20406;-49
2022/02/28 13:58:16;;;;;;;6.17;5.30;;;;;;;;;;5050685;28;20920;-48
2022/02/28 14:00:55;;;;;;;5.63;5.13;;;;;;;;;;5050609;28;20449;-48
2022/02/28 14:03:22;;;;;;;6.43;5.40;;;;;;;;;;5036767;28;20841;-47
2022/02/28 14:05:50;;;;;;;6.70;5.27;;;;;;;;;;5029665;28;20402;-48
2022/02/28 14:08:16;;;;;;;6.20;5.43;;;;;;;;;;5029459;28;20529;-48
2022/02/28 14:10:49;;;;;;;7.30;5.20;;;;;;;;;;5028760;28;20767;-48
2022/02/28 14:13:29;;;;;;;6.20;5.60;;;;;;;;;;5030752;28;20410;-48
2022/02/28 14:16:12;;;;;;;5.77;4.83;;;;;;;;;;5030561;28;20858;-47
2022/02/28 14:18:41;;;;;;;5.50;5.00;;;;;;;;;;5030897;28;20443;-48
2022/02/28 14:21:08;;;;;;;6.20;5.60;;;;;;;;;;5030457;28;20500;-48
2022/02/28 14:23:34;;;;;;;6.40;5.77;;;;;;;;;;5029029;28;20676;-48
2022/02/28 14:26:10;;;;;;;5.63;5.13;;;;;;;;;;5029928;28;20427;-47
2022/02/28 14:28:43;;;;;;;6.27;5.47;;;;;;;;;;5034000;28;20429;-47
2022/02/28 14:31:09;;;;;;;6.40;5.80;;;;;;;;;;5034324;28;20399;-48
2022/02/28 14:33:49;;;;;;;7.80;5.73;;;;;;;;;;5034549;28;20766;-48
2022/02/28 14:36:15;;;;;;;6.27;5.67;;;;;;;;;;5034553;28;20469;-47
2022/02/28 14:38:41;;;;;;;5.90;5.40;;;;;;;;;;5034305;28;20432;-48
2022/02/28 14:41:08;;;;;;;6.60;5.73;;;;;;;;;;5034178;28;20472;-48
2022/02/28 14:43:34;;;;;;;5.90;5.40;;;;;;;;;;5034401;28;20406;-48
2022/02/28 14:46:00;;;;;;;7.23;5.67;;;;;;;;;;5034266;28;20399;-48
2022/02/28 14:48:27;;;;;;;5.63;5.13;;;;;;;;;;5034408;28;20442;-48